Time;durP1;ratioP1;P1;durP2;ratioP2;P2;SDS_P1;SDS_P2;PMS_P1;PMS_P2;Temp;Humidity;BMP_temperature;BMP_pressure;BME280_temperature;BME280_humidity;BME280_pressure;Samples;Min_cycle;Max_cycle;Signal;HPM_P1;HPM_P2
2022/12/28 00:02:57;;;;;;;8.10;6.87;;;5.80;99.90;;;;;;6223863;28;20794;-61
2022/12/28 00:06:02;;;;;;;9.40;7.23;;;5.80;99.90;;;;;;6224628;28;20537;-61
2022/12/28 00:09:05;;;;;;;9.83;7.50;;;5.80;99.90;;;;;;6225186;28;20494;-61
2022/12/28 00:12:09;;;;;;;11.70;7.20;;;5.80;99.90;;;;;;6224309;28;20476;-61
2022/12/28 00:15:12;;;;;;;8.53;7.20;;;5.70;99.90;;;;;;6224174;28;20484;-61
2022/12/28 00:18:15;;;;;;;7.27;6.57;;;5.70;99.90;;;;;;6225803;28;20487;-61
2022/12/28 00:21:20;;;;;;;8.93;7.07;;;5.70;99.90;;;;;;6227280;28;20479;-61
2022/12/28 00:24:25;;;;;;;8.90;6.40;;;5.60;99.90;;;;;;6224889;28;20468;-61
2022/12/28 00:27:28;;;;;;;7.37;6.50;;;5.60;99.90;;;;;;6224375;28;20491;-61
2022/12/28 00:30:31;;;;;;;6.70;5.60;;;5.60;99.90;;;;;;6224535;28;20823;-61
2022/12/28 00:33:34;;;;;;;7.30;6.13;;;5.60;99.90;;;;;;6223999;28;20495;-61
2022/12/28 00:36:39;;;;;;;7.13;6.33;;;5.60;99.90;;;;;;6224283;28;20479;-62
2022/12/28 00:40:02;;;;;;;9.37;6.37;;;5.70;99.90;;;;;;6224526;28;20878;-61
2022/12/28 00:43:05;;;;;;;9.67;6.40;;;5.60;99.90;;;;;;6224003;28;20476;-61
2022/12/28 00:46:08;;;;;;;6.73;5.30;;;5.70;99.90;;;;;;6226122;28;20967;-61
2022/12/28 00:49:12;;;;;;;7.83;6.70;;;5.70;99.90;;;;;;6228305;28;20482;-62
2022/12/28 00:52:16;;;;;;;7.43;6.60;;;5.70;99.90;;;;;;6227484;28;20471;-61
2022/12/28 00:55:20;;;;;;;7.93;6.37;;;5.70;99.90;;;;;;6224379;28;20476;-62
2022/12/28 00:58:23;;;;;;;9.67;8.10;;;5.70;99.90;;;;;;6224988;28;20813;-61
2022/12/28 01:01:27;;;;;;;6.80;5.93;;;5.80;99.90;;;;;;6250599;28;20913;-61
2022/12/28 01:04:30;;;;;;;11.27;9.40;;;5.80;99.90;;;;;;6227605;28;20467;-61
2022/12/28 01:07:35;;;;;;;8.00;7.20;;;5.70;99.90;;;;;;6225655;28;20452;-62
2022/12/28 01:10:41;;;;;;;13.10;7.43;;;5.80;99.90;;;;;;6226102;28;20479;-61
2022/12/28 01:13:44;;;;;;;9.70;7.13;;;5.80;99.90;;;;;;6224689;28;20471;-61
2022/12/28 01:16:48;;;;;;;7.47;5.77;;;5.80;99.90;;;;;;6227228;28;20965;-62
2022/12/28 01:19:51;;;;;;;6.80;6.20;;;5.70;99.90;;;;;;6227590;28;20478;-62
2022/12/28 01:22:57;;;;;;;7.30;6.00;;;5.70;99.90;;;;;;6179088;28;20513;-62
2022/12/28 01:26:01;;;;;;;9.77;7.43;;;5.80;99.90;;;;;;6179002;28;20969;-62
2022/12/28 01:29:05;;;;;;;6.57;5.87;;;5.80;99.90;;;;;;6176400;28;20482;-62
2022/12/28 01:32:08;;;;;;;6.20;5.60;;;5.80;99.90;;;;;;6178917;28;20470;-62
2022/12/28 01:35:11;;;;;;;7.03;6.30;;;5.80;99.90;;;;;;6178760;28;20636;-63
2022/12/28 01:38:15;;;;;;;7.13;6.43;;;5.80;99.90;;;;;;6178941;28;20490;-62
2022/12/28 01:41:21;;;;;;;6.27;5.70;;;5.80;99.90;;;;;;6179532;28;20474;-62
2022/12/28 01:44:44;;;;;;;8.90;6.53;;;5.80;99.90;;;;;;6179153;28;20481;-62
2022/12/28 01:47:51;;;;;;;7.00;6.30;;;5.80;99.90;;;;;;6179004;28;20931;-63
2022/12/28 01:50:55;;;;;;;6.70;5.40;;;5.70;99.90;;;;;;6178934;28;20469;-62
2022/12/28 01:54:01;;;;;;;7.53;6.73;;;5.60;99.90;;;;;;6174453;28;20481;-62
2022/12/28 01:57:05;;;;;;;15.37;7.00;;;5.50;99.90;;;;;;6178196;28;20962;-64
2022/12/28 02:00:11;;;;;;;7.90;6.43;;;5.40;99.90;;;;;;6178293;28;20978;-63
2022/12/28 02:03:18;;;;;;;9.00;6.47;;;5.30;99.90;;;;;;6175624;28;20469;-63
2022/12/28 02:06:22;;;;;;;8.60;5.70;;;5.20;99.90;;;;;;6177780;28;20481;-63
2022/12/28 02:09:30;;;;;;;8.40;6.37;;;5.20;99.90;;;;;;6178018;28;20477;-63
2022/12/28 02:12:33;;;;;;;9.57;6.30;;;5.10;99.90;;;;;;6175660;28;20474;-62
2022/12/28 02:15:37;;;;;;;6.90;6.17;;;5.10;99.90;;;;;;6177886;28;20980;-63
2022/12/28 02:18:42;;;;;;;7.73;6.60;;;5.00;99.90;;;;;;6178032;28;20772;-62
2022/12/28 02:22:01;;;;;;;6.13;5.47;;;4.90;99.90;;;;;;6208057;28;20590;-62
2022/12/28 02:25:24;;;;;;;7.30;5.93;;;4.90;99.90;;;;;;6251903;28;20475;-62
2022/12/28 02:28:57;;;;;;;8.50;6.67;;;4.80;99.90;;;;;;6227817;28;20448;-62
2022/12/28 02:32:10;;;;;;;10.10;6.60;;;4.70;99.90;;;;;;6214802;28;20471;-62
2022/12/28 02:35:19;;;;;;;14.23;7.70;;;4.70;99.90;;;;;;6227529;28;20476;-62
2022/12/28 02:38:28;;;;;;;10.10;7.50;;;4.60;99.90;;;;;;6227436;28;20476;-62
2022/12/28 02:41:33;;;;;;;6.23;5.20;;;4.50;99.90;;;;;;6227844;28;20472;-62
2022/12/28 02:51:40;;;;;;;9.90;8.90;;;4.30;99.90;;;;;;6224889;28;20468;-62
2022/12/28 02:58:52;;;;;;;10.00;8.30;;;4.30;99.90;;;;;;6226928;28;20928;-63
2022/12/28 03:02:17;;;;;;;10.63;8.00;;;4.20;99.90;;;;;;6249718;28;20468;-62
2022/12/28 03:08:58;;;;;;;8.50;5.40;;;4.20;99.90;;;;;;6201254;28;20499;-63
2022/12/28 03:12:08;;;;;;;6.73;5.90;;;4.20;99.90;;;;;;6201477;28;20586;-63
2022/12/28 03:15:28;;;;;;;6.37;5.47;;;4.10;99.90;;;;;;6201597;28;20465;-62
2022/12/28 03:32:06;;;;;;;6.57;5.30;;;3.80;99.90;;;;;;6224019;28;20773;-66
2022/12/28 03:35:10;;;;;;;8.97;6.40;;;3.80;99.90;;;;;;6223971;28;20475;-66
2022/12/28 03:38:26;;;;;;;7.20;6.23;;;3.80;99.90;;;;;;6223870;28;20480;-66
2022/12/28 03:41:35;;;;;;;11.83;6.47;;;3.80;99.90;;;;;;6223833;28;20476;-66
2022/12/28 03:44:39;;;;;;;11.37;7.10;;;3.80;99.90;;;;;;6224535;28;20530;-66
2022/12/28 03:47:44;;;;;;;8.67;6.13;;;3.80;99.90;;;;;;6225256;28;20472;-66
2022/12/28 03:50:50;;;;;;;9.23;6.50;;;3.70;99.90;;;;;;6225536;28;20480;-65
2022/12/28 03:53:55;;;;;;;6.80;6.10;;;3.70;99.90;;;;;;6225699;28;20476;-66
2022/12/28 03:56:59;;;;;;;5.97;5.47;;;3.70;99.90;;;;;;6224690;28;20492;-66
2022/12/28 04:00:02;;;;;;;5.50;5.00;;;3.70;99.90;;;;;;6224750;28;20475;-66
2022/12/28 04:03:05;;;;;;;7.03;5.63;;;3.60;99.90;;;;;;6225529;28;20479;-66
2022/12/28 04:06:11;;;;;;;8.03;5.57;;;3.60;99.90;;;;;;6240384;28;20818;-66
2022/12/28 04:09:16;;;;;;;6.43;5.77;;;3.50;99.90;;;;;;6235267;28;20483;-66
2022/12/28 04:12:19;;;;;;;6.10;4.90;;;3.50;99.90;;;;;;6229229;28;20472;-66
2022/12/28 04:15:22;;;;;;;8.17;5.40;;;3.50;99.90;;;;;;6225500;28;20472;-65
2022/12/28 04:18:26;;;;;;;6.27;5.20;;;3.50;99.90;;;;;;6225537;28;20505;-66
2022/12/28 04:21:29;;;;;;;5.60;5.10;;;3.50;99.90;;;;;;6227500;28;20827;-66
2022/12/28 04:24:33;;;;;;;5.97;5.37;;;3.40;99.90;;;;;;6230276;28;20507;-66
2022/12/28 04:27:36;;;;;;;6.67;5.97;;;3.40;99.90;;;;;;6229732;28;20487;-65
2022/12/28 04:30:40;;;;;;;6.40;5.80;;;3.30;99.90;;;;;;6229687;28;20483;-65
2022/12/28 04:33:43;;;;;;;7.70;5.40;;;3.30;99.90;;;;;;6229217;28;20982;-65
2022/12/28 04:36:47;;;;;;;6.53;5.93;;;3.30;99.90;;;;;;6229297;28;20483;-65
2022/12/28 04:39:51;;;;;;;6.93;5.67;;;3.30;99.90;;;;;;6229572;28;20591;-66
2022/12/28 04:42:59;;;;;;;7.63;6.93;;;3.30;99.90;;;;;;6229256;28;20563;-66
2022/12/28 04:46:05;;;;;;;5.20;4.70;;;3.30;99.90;;;;;;6230792;28;20479;-66
2022/12/28 04:49:09;;;;;;;6.63;5.67;;;3.30;99.90;;;;;;6229264;28;20476;-66
2022/12/28 04:52:12;;;;;;;5.83;5.33;;;3.30;99.90;;;;;;6239321;28;20455;-65
2022/12/28 04:55:16;;;;;;;6.23;5.60;;;3.30;99.90;;;;;;6253987;28;20494;-66
2022/12/28 04:58:36;;;;;;;6.90;5.77;;;3.30;99.90;;;;;;6255309;28;20501;-66
2022/12/28 05:01:39;;;;;;;6.10;5.10;;;3.20;99.90;;;;;;6241962;28;20459;-65
2022/12/28 05:04:42;;;;;;;6.40;5.80;;;3.20;99.90;;;;;;6233590;28;20470;-65
2022/12/28 05:07:46;;;;;;;5.33;4.83;;;3.20;99.90;;;;;;6244287;28;20470;-65
2022/12/28 05:10:50;;;;;;;5.83;5.03;;;3.10;99.90;;;;;;6253359;28;20478;-65
2022/12/28 05:13:53;;;;;;;6.10;5.30;;;3.20;99.90;;;;;;6252906;28;20791;-65
2022/12/28 05:16:57;;;;;;;7.17;6.00;;;3.10;99.90;;;;;;6252723;28;20475;-65
2022/12/28 05:20:00;;;;;;;7.67;5.60;;;3.10;99.90;;;;;;6275599;28;20787;-65
2022/12/28 05:23:03;;;;;;;6.50;5.07;;;3.10;99.90;;;;;;6277831;28;20481;-65
2022/12/28 05:26:11;;;;;;;5.67;4.90;;;3.00;99.90;;;;;;6276985;28;20477;-65
2022/12/28 05:29:14;;;;;;;9.90;6.20;;;3.00;99.90;;;;;;6277389;28;20482;-65
2022/12/28 05:32:17;;;;;;;6.90;6.27;;;3.00;99.90;;;;;;6276724;28;20838;-65
2022/12/28 05:35:20;;;;;;;6.33;5.73;;;3.00;99.90;;;;;;6277060;28;20977;-65
2022/12/28 05:38:23;;;;;;;8.27;7.47;;;3.00;99.90;;;;;;6276942;28;20559;-65
2022/12/28 05:41:29;;;;;;;8.10;6.90;;;3.00;99.90;;;;;;6277680;28;20474;-65
2022/12/28 05:44:33;;;;;;;6.87;6.17;;;2.90;99.90;;;;;;6277044;28;20482;-65
2022/12/28 05:47:36;;;;;;;6.70;5.10;;;2.90;99.90;;;;;;6277319;28;20527;-65
2022/12/28 05:50:39;;;;;;;5.93;5.27;;;2.90;99.90;;;;;;6276869;28;20561;-65
2022/12/28 05:53:43;;;;;;;5.70;5.20;;;2.90;99.90;;;;;;6276971;28;20793;-64
2022/12/28 05:56:50;;;;;;;7.00;6.27;;;2.90;99.90;;;;;;6284345;28;20467;-64
2022/12/28 05:59:53;;;;;;;9.57;8.40;;;2.90;99.90;;;;;;6283675;28;20471;-65
2022/12/28 06:02:57;;;;;;;8.10;6.50;;;2.90;99.90;;;;;;6282054;28;20471;-64
2022/12/28 06:06:04;;;;;;;8.13;6.77;;;2.90;99.90;;;;;;6286595;28;20466;-64
2022/12/28 06:09:07;;;;;;;5.80;5.20;;;2.90;99.90;;;;;;6263913;28;20479;-64
2022/12/28 06:12:12;;;;;;;7.77;6.57;;;2.90;99.90;;;;;;6249367;28;20810;-64
2022/12/28 06:15:15;;;;;;;6.97;6.07;;;2.90;99.90;;;;;;6251698;28;20493;-64
2022/12/28 06:18:18;;;;;;;8.00;6.03;;;2.80;99.90;;;;;;6261222;28;20485;-64
2022/12/28 06:21:24;;;;;;;6.97;5.87;;;2.80;99.90;;;;;;6276112;28;20477;-64
2022/12/28 06:24:27;;;;;;;7.20;6.33;;;2.80;99.90;;;;;;6276703;28;20481;-64
2022/12/28 06:27:31;;;;;;;6.67;5.93;;;2.80;99.90;;;;;;6276419;28;20458;-65
2022/12/28 06:30:35;;;;;;;5.73;5.10;;;2.70;99.90;;;;;;6276196;28;20485;-65
2022/12/28 06:33:38;;;;;;;6.43;5.57;;;2.70;99.90;;;;;;6276325;28;20761;-66
2022/12/28 06:36:43;;;;;;;8.50;6.30;;;2.70;99.90;;;;;;6276059;28;20466;-66
2022/12/28 06:39:46;;;;;;;8.70;5.97;;;2.70;99.90;;;;;;6276330;28;20466;-66
2022/12/28 06:42:50;;;;;;;7.67;6.03;;;2.70;99.90;;;;;;6275147;28;20794;-66
2022/12/28 06:45:57;;;;;;;6.23;5.50;;;2.70;99.90;;;;;;6275956;28;20946;-66
2022/12/28 06:49:00;;;;;;;6.23;4.77;;;2.70;99.90;;;;;;6275242;28;20958;-67
2022/12/28 06:52:04;;;;;;;9.20;5.57;;;2.70;99.90;;;;;;6275406;28;20481;-65
2022/12/28 06:55:07;;;;;;;8.13;7.17;;;2.70;99.90;;;;;;6275178;28;20470;-65
2022/12/28 06:58:12;;;;;;;8.40;6.57;;;2.70;99.90;;;;;;6275141;28;20493;-66
2022/12/28 07:01:17;;;;;;;6.53;5.83;;;2.70;99.90;;;;;;6275294;28;20470;-66
2022/12/28 07:04:20;;;;;;;7.60;6.90;;;2.80;99.90;;;;;;6263338;28;20520;-67
2022/12/28 07:07:23;;;;;;;11.60;8.03;;;2.90;99.90;;;;;;6250526;28;20455;-66
2022/12/28 07:10:27;;;;;;;8.17;6.23;;;2.90;99.90;;;;;;6250408;28;20462;-66
2022/12/28 07:13:31;;;;;;;6.90;6.30;;;3.00;99.90;;;;;;6250956;28;20443;-66
2022/12/28 07:16:35;;;;;;;8.23;6.30;;;3.00;99.90;;;;;;6250124;28;20455;-66
2022/12/28 07:19:37;;;;;;;11.27;6.33;;;3.20;99.90;;;;;;6270243;28;20482;-66
2022/12/28 07:22:40;;;;;;;11.07;5.80;;;3.20;99.90;;;;;;6274477;28;20466;-66
2022/12/28 07:25:43;;;;;;;6.43;5.80;;;3.30;99.90;;;;;;6275032;28;20477;-66
2022/12/28 07:28:49;;;;;;;6.67;6.03;;;3.30;99.90;;;;;;6275068;28;20465;-66
2022/12/28 07:31:52;;;;;;;6.07;5.47;;;3.30;99.90;;;;;;6275008;28;20473;-66
2022/12/28 07:34:56;;;;;;;6.30;5.70;;;3.40;99.90;;;;;;6274884;28;20466;-66
2022/12/28 07:37:59;;;;;;;6.67;5.97;;;3.40;99.90;;;;;;6274441;28;20475;-66
2022/12/28 07:41:03;;;;;;;8.97;6.10;;;3.50;99.90;;;;;;6275118;28;20549;-65
2022/12/28 07:44:07;;;;;;;7.53;6.83;;;3.60;99.90;;;;;;6275264;28;21041;-66
2022/12/28 07:47:11;;;;;;;7.23;6.00;;;3.60;99.90;;;;;;6275104;28;20470;-66
2022/12/28 07:50:15;;;;;;;8.80;6.70;;;3.60;99.90;;;;;;6284652;28;20477;-66
2022/12/28 07:53:18;;;;;;;6.60;6.00;;;3.60;99.90;;;;;;6278474;28;20481;-66
2022/12/28 07:56:25;;;;;;;6.83;5.90;;;3.60;99.90;;;;;;6279890;28;20624;-66
2022/12/28 07:59:29;;;;;;;8.83;6.83;;;3.70;99.90;;;;;;6279807;28;20815;-66
2022/12/28 08:02:33;;;;;;;7.47;6.67;;;3.80;99.90;;;;;;6279681;28;20572;-66
2022/12/28 08:05:36;;;;;;;9.63;7.30;;;3.80;99.90;;;;;;6257104;28;20499;-66
2022/12/28 08:08:41;;;;;;;8.67;7.23;;;4.00;99.90;;;;;;6254565;28;20470;-66
2022/12/28 08:11:45;;;;;;;8.50;6.40;;;4.10;99.90;;;;;;6254554;28;20475;-66
2022/12/28 08:14:50;;;;;;;9.50;6.93;;;4.20;99.90;;;;;;6254392;28;20479;-66
2022/12/28 08:17:54;;;;;;;19.10;12.57;;;4.20;99.90;;;;;;6259846;28;20996;-65
2022/12/28 08:21:01;;;;;;;8.40;7.23;;;4.20;99.90;;;;;;6278740;28;20561;-65
2022/12/28 08:24:06;;;;;;;8.77;7.70;;;4.30;99.90;;;;;;6278904;28;20972;-65
2022/12/28 08:27:09;;;;;;;9.37;8.47;;;4.30;99.90;;;;;;6278729;28;20493;-65
2022/12/28 08:30:14;;;;;;;10.83;9.23;;;4.40;99.90;;;;;;6278498;28;20481;-66
2022/12/28 08:33:17;;;;;;;10.43;8.90;;;4.40;99.90;;;;;;6278672;28;20478;-66
2022/12/28 08:36:22;;;;;;;9.43;7.50;;;4.40;99.90;;;;;;6278355;28;20469;-65
2022/12/28 08:39:25;;;;;;;11.23;8.47;;;4.50;99.90;;;;;;6278458;28;20478;-65
2022/12/28 08:42:28;;;;;;;10.67;9.67;;;4.60;99.90;;;;;;6278598;28;20470;-64
2022/12/28 08:45:33;;;;;;;9.87;8.87;;;4.70;99.90;;;;;;6278582;28;20470;-65
2022/12/28 08:48:36;;;;;;;10.80;9.57;;;4.70;99.90;;;;;;6278044;28;20470;-65
2022/12/28 08:51:41;;;;;;;10.47;8.90;;;4.80;99.90;;;;;;6278191;28;20493;-65
2022/12/28 08:54:44;;;;;;;8.70;7.87;;;4.80;99.90;;;;;;6278734;28;20695;-65
2022/12/28 08:57:47;;;;;;;11.20;7.87;;;4.70;99.90;;;;;;6277964;28;20960;-65
2022/12/28 09:00:52;;;;;;;9.87;7.63;;;4.70;99.90;;;;;;6277861;28;20474;-65
2022/12/28 09:03:57;;;;;;;7.97;6.43;;;4.70;99.90;;;;;;6269726;28;20783;-65
2022/12/28 09:07:00;;;;;;;9.73;7.90;;;4.70;99.90;;;;;;6252068;28;20485;-66
2022/12/28 09:10:04;;;;;;;6.83;6.10;;;4.70;99.90;;;;;;6230693;28;20468;-67
2022/12/28 09:13:08;;;;;;;6.87;6.10;;;4.80;99.90;;;;;;6227255;28;20483;-66
2022/12/28 09:16:14;;;;;;;7.33;6.70;;;4.80;99.90;;;;;;6227982;28;20483;-66
2022/12/28 09:19:17;;;;;;;7.87;6.60;;;4.80;99.90;;;;;;6227550;28;20871;-65
2022/12/28 09:22:20;;;;;;;9.43;7.10;;;4.90;99.90;;;;;;6220468;28;20487;-65
2022/12/28 09:25:24;;;;;;;7.23;6.50;;;5.00;99.90;;;;;;6228790;28;20900;-65
2022/12/28 09:28:27;;;;;;;7.30;6.20;;;5.10;99.90;;;;;;6231199;28;20467;-63
2022/12/28 09:31:35;;;;;;;7.03;6.33;;;5.20;99.90;;;;;;6229074;28;20460;-64
2022/12/28 09:34:39;;;;;;;8.13;6.40;;;5.30;99.90;;;;;;6228131;28;20453;-65
2022/12/28 09:37:42;;;;;;;7.07;6.33;;;5.30;99.90;;;;;;6249320;28;20935;-65
2022/12/28 09:40:45;;;;;;;9.40;6.70;;;5.40;99.90;;;;;;6228735;28;20466;-66
2022/12/28 09:43:50;;;;;;;8.77;6.83;;;5.50;99.90;;;;;;6229729;28;20472;-65
2022/12/28 09:47:00;;;;;;;7.13;6.10;;;5.60;99.90;;;;;;6229783;28;20452;-65
2022/12/28 09:50:29;;;;;;;10.33;6.40;;;5.60;99.90;;;;;;6228611;28;20468;-66
2022/12/28 09:53:35;;;;;;;8.90;6.40;;;5.80;99.90;;;;;;6228002;28;20478;-65
2022/12/28 09:56:42;;;;;;;13.53;8.50;;;6.00;99.90;;;;;;6227516;28;20478;-65
2022/12/28 09:59:46;;;;;;;8.77;7.03;;;6.40;99.90;;;;;;6227709;28;20801;-61
2022/12/28 10:02:55;;;;;;;8.80;7.77;;;7.00;99.90;;;;;;6227495;28;20486;-64
2022/12/28 10:05:59;;;;;;;10.83;7.83;;;7.40;99.90;;;;;;6208016;28;20474;-64
2022/12/28 10:09:05;;;;;;;10.57;8.80;;;7.50;99.20;;;;;;6228731;28;20468;-64
2022/12/28 10:12:15;;;;;;;11.80;9.43;;;7.60;99.10;;;;;;6227687;28;20474;-65
2022/12/28 10:15:18;;;;;;;15.90;9.93;;;7.90;98.80;;;;;;6224736;28;20467;-65
2022/12/28 10:18:27;;;;;;;10.60;9.00;;;8.20;98.20;;;;;;6226188;28;20472;-65
2022/12/28 10:21:32;;;;;;;14.50;10.47;;;8.70;97.80;;;;;;6226804;28;20976;-65
2022/12/28 10:24:35;;;;;;;10.50;9.00;;;9.30;96.30;;;;;;6226726;28;20498;-65
2022/12/28 10:27:39;;;;;;;10.50;9.43;;;10.00;94.90;;;;;;6241694;28;20482;-65
2022/12/28 10:31:02;;;;;;;8.57;7.70;;;10.60;93.20;;;;;;6251187;28;20474;-65
2022/12/28 10:34:15;;;;;;;9.63;7.33;;;10.80;92.20;;;;;;6251209;28;20837;-65
2022/12/28 10:37:20;;;;;;;8.30;7.50;;;10.90;91.00;;;;;;6226189;28;20757;-65
2022/12/28 10:40:27;;;;;;;12.57;8.77;;;10.70;90.30;;;;;;6227974;28;20482;-65
2022/12/28 10:43:32;;;;;;;9.40;7.00;;;10.70;89.30;;;;;;6250244;28;20431;-65
2022/12/28 10:46:36;;;;;;;10.20;8.40;;;10.70;90.00;;;;;;6226529;28;20409;-65
2022/12/28 10:49:49;;;;;;;8.83;7.20;;;10.70;88.80;;;;;;6239333;28;20471;-65
2022/12/28 10:53:25;;;;;;;7.80;6.73;;;10.70;88.40;;;;;;6235494;28;20557;-65
2022/12/28 10:56:30;;;;;;;12.30;7.40;;;10.70;87.60;;;;;;6231797;28;20472;-64
2022/12/28 10:59:33;;;;;;;7.43;6.50;;;10.70;86.90;;;;;;6226599;28;20567;-65
2022/12/28 11:02:36;;;;;;;12.37;6.57;;;10.60;86.70;;;;;;6226010;28;20472;-64
2022/12/28 11:05:41;;;;;;;8.90;7.37;;;10.60;86.10;;;;;;6226348;28;20563;-64
2022/12/28 11:09:00;;;;;;;10.53;7.10;;;10.60;85.40;;;;;;6225360;28;20472;-65
2022/12/28 11:12:18;;;;;;;10.57;8.20;;;10.70;85.50;;;;;;6225705;28;20476;-64
2022/12/28 11:15:23;;;;;;;15.00;8.53;;;11.00;85.20;;;;;;6225725;28;20471;-64
2022/12/28 11:18:26;;;;;;;9.57;6.60;;;11.20;84.30;;;;;;6225243;28;20476;-65
2022/12/28 11:21:38;;;;;;;10.00;6.53;;;11.50;82.20;;;;;;6224717;28;20476;-66
2022/12/28 11:24:42;;;;;;;8.70;7.10;;;12.10;81.30;;;;;;6225392;28;20471;-64
2022/12/28 11:27:46;;;;;;;9.23;7.60;;;12.60;77.60;;;;;;6224728;28;20472;-64
2022/12/28 11:30:51;;;;;;;6.23;5.40;;;12.90;76.10;;;;;;6224743;28;20476;-63
2022/12/28 11:33:58;;;;;;;9.00;6.60;;;13.00;71.70;;;;;;6217317;28;20486;-64
2022/12/28 11:37:03;;;;;;;13.10;7.00;;;13.30;71.90;;;;;;6243849;28;20476;-64
2022/12/28 11:40:10;;;;;;;6.10;5.23;;;14.10;69.30;;;;;;6226823;28;20487;-65
2022/12/28 11:43:48;;;;;;;10.20;9.30;;;14.90;63.80;;;;;;6224665;28;20478;-65
2022/12/28 11:47:03;;;;;;;6.87;5.10;;;16.50;58.20;;;;;;6224665;28;20519;-64
2022/12/28 11:50:41;;;;;;;6.33;4.60;;;18.60;52.20;;;;;;6224941;28;20848;-62
2022/12/28 11:53:57;;;;;;;5.90;4.87;;;21.80;44.10;;;;;;6225021;28;20228;-67
2022/12/28 11:57:01;;;;;;;5.10;4.70;;;24.80;35.50;;;;;;6224970;28;20246;-62
2022/12/28 12:00:47;;;;;;;6.10;5.50;;;27.30;30.00;;;;;;6224779;28;20244;-62
2022/12/28 12:04:18;;;;;;;8.03;6.70;;;28.10;26.30;;;;;;6224598;28;20232;-65
2022/12/28 12:07:24;;;;;;;9.00;8.07;;;25.60;27.40;;;;;;6248424;28;20243;-66
2022/12/28 12:10:37;;;;;;;8.93;6.83;;;22.80;29.70;;;;;;6224844;28;20193;-63
2022/12/28 12:13:43;;;;;;;8.57;7.20;;;23.10;30.70;;;;;;6224793;28;20742;-63
2022/12/28 12:16:50;;;;;;;8.80;6.97;;;24.20;29.20;;;;;;6225003;28;20240;-63
2022/12/28 12:19:58;;;;;;;8.13;7.30;;;23.50;29.00;;;;;;6224810;28;20262;-63
2022/12/28 12:23:07;;;;;;;7.77;6.97;;;22.00;30.20;;;;;;6224420;28;20225;-63
2022/12/28 12:26:27;;;;;;;12.23;8.60;;;20.80;32.00;;;;;;6223565;28;20241;-63
2022/12/28 12:29:37;;;;;;;10.67;7.00;;;19.10;34.10;;;;;;6223485;28;20330;-61
2022/12/28 12:32:45;;;;;;;10.83;7.17;;;20.00;34.50;;;;;;6222520;28;20553;-64
2022/12/28 12:36:00;;;;;;;10.33;6.33;;;22.40;32.50;;;;;;6218420;28;20684;-65
2022/12/28 12:39:21;;;;;;;6.70;6.10;;;24.70;29.10;;;;;;6221600;28;20225;-64
2022/12/28 12:42:34;;;;;;;8.13;6.40;;;25.30;27.10;;;;;;6226778;28;20673;-61
2022/12/28 12:45:47;;;;;;;6.63;5.93;;;24.40;28.20;;;;;;6228029;28;20232;-61
2022/12/28 12:49:04;;;;;;;7.07;6.47;;;24.70;28.00;;;;;;6226799;28;20665;-63
2022/12/28 12:52:20;;;;;;;7.23;6.53;;;26.10;27.10;;;;;;6227799;28;20233;-62
2022/12/28 12:55:39;;;;;;;6.90;6.20;;;27.90;25.40;;;;;;6237613;28;20202;-61
2022/12/28 12:58:52;;;;;;;11.90;7.33;;;28.20;25.10;;;;;;6204906;28;20233;-68
2022/12/28 13:02:08;;;;;;;8.87;5.10;;;28.40;24.10;;;;;;6209750;28;20240;-67
2022/12/28 13:05:17;;;;;;;6.37;5.27;;;28.30;23.60;;;;;;6241564;28;20243;-67
2022/12/28 13:08:26;;;;;;;7.40;6.00;;;28.30;23.40;;;;;;6229451;28;20237;-65
2022/12/28 13:11:30;;;;;;;7.10;6.40;;;26.20;24.80;;;;;;6229903;28;20233;-63
2022/12/28 13:14:35;;;;;;;6.20;5.60;;;23.70;27.00;;;;;;6228582;28;20669;-65
2022/12/28 13:17:39;;;;;;;8.90;6.60;;;22.30;28.70;;;;;;6228413;28;20229;-63
2022/12/28 13:20:53;;;;;;;8.47;6.70;;;23.40;28.50;;;;;;6227541;28;20315;-62
2022/12/28 13:23:56;;;;;;;7.60;5.93;;;25.40;27.50;;;;;;6227972;28;20233;-63
2022/12/28 13:27:02;;;;;;;10.70;6.37;;;27.00;25.80;;;;;;6230847;28;20221;-65
2022/12/28 13:30:18;;;;;;;6.23;5.60;;;27.90;24.90;;;;;;6228965;28;20221;-64
2022/12/28 13:33:22;;;;;;;7.13;6.50;;;26.10;25.10;;;;;;6204630;28;20225;-66
2022/12/28 13:36:25;;;;;;;7.70;5.60;;;24.40;27.10;;;;;;6205400;28;20240;-68
2022/12/28 13:39:30;;;;;;;7.47;6.20;;;24.60;27.50;;;;;;6206178;28;20554;-64
2022/12/28 13:42:52;;;;;;;6.87;6.30;;;25.50;26.90;;;;;;6203202;28;20834;-64
2022/12/28 13:46:01;;;;;;;7.77;7.03;;;26.70;26.30;;;;;;6202844;28;20248;-65
2022/12/28 13:49:05;;;;;;;9.67;6.83;;;27.60;25.30;;;;;;6207348;28;20316;-66
2022/12/28 13:52:13;;;;;;;9.20;7.03;;;28.00;24.80;;;;;;6202905;28;20287;-66
2022/12/28 13:55:20;;;;;;;7.53;6.83;;;28.20;24.50;;;;;;6202746;28;20747;-65
2022/12/28 13:58:27;;;;;;;6.70;6.13;;;27.50;24.90;;;;;;6202593;28;20229;-65
2022/12/28 14:01:35;;;;;;;10.20;7.77;;;27.20;24.70;;;;;;6203108;28;20229;-66
2022/12/28 14:04:39;;;;;;;7.83;7.10;;;26.60;25.40;;;;;;6217202;28;20231;-64
2022/12/28 14:07:59;;;;;;;7.43;6.73;;;26.60;25.50;;;;;;6231910;28;20239;-64
2022/12/28 14:11:03;;;;;;;13.17;10.30;;;26.00;25.80;;;;;;6246352;28;20555;-67
2022/12/28 14:14:07;;;;;;;10.10;9.20;;;25.60;26.30;;;;;;6227188;28;20239;-65
2022/12/28 14:17:13;;;;;;;8.47;7.67;;;25.50;26.40;;;;;;6226643;28;20696;-63
2022/12/28 14:20:16;;;;;;;9.57;8.57;;;25.20;26.70;;;;;;6202196;28;20254;-65
2022/12/28 14:23:21;;;;;;;7.73;7.03;;;24.20;27.30;;;;;;6203249;28;20225;-64
2022/12/28 14:26:25;;;;;;;8.00;7.07;;;22.70;28.90;;;;;;6202981;28;20716;-65
2022/12/28 14:29:30;;;;;;;8.00;7.30;;;21.30;30.00;;;;;;6202818;28;20237;-64
2022/12/28 14:32:36;;;;;;;9.97;7.47;;;19.80;31.90;;;;;;6202172;28;20593;-64
2022/12/28 14:36:01;;;;;;;10.17;7.10;;;18.50;33.80;;;;;;6201637;28;20973;-63
2022/12/28 14:39:04;;;;;;;8.97;7.27;;;17.00;36.10;;;;;;6201261;28;20794;-60
2022/12/28 14:42:20;;;;;;;10.70;7.30;;;15.90;38.30;;;;;;6222400;28;20490;-65
2022/12/28 14:45:41;;;;;;;9.53;7.40;;;14.80;40.70;;;;;;6226128;28;20473;-66
2022/12/28 14:49:32;;;;;;;9.90;6.87;;;13.90;42.70;;;;;;6225964;28;20491;-65
2022/12/28 14:52:43;;;;;;;8.20;7.40;;;12.90;44.70;;;;;;6227965;28;20463;-66
2022/12/28 14:55:57;;;;;;;8.30;7.30;;;12.30;46.30;;;;;;6247426;28;20474;-66
2022/12/28 14:59:01;;;;;;;12.83;7.20;;;11.70;48.00;;;;;;6225658;28;21028;-66
2022/12/28 15:02:05;;;;;;;9.73;7.53;;;11.30;49.20;;;;;;6225470;28;20543;-66
2022/12/28 15:05:36;;;;;;;17.43;9.40;;;10.90;50.80;;;;;;6224842;28;20468;-66
2022/12/28 15:08:39;;;;;;;11.37;9.27;;;10.60;52.00;;;;;;6226173;28;20472;-65
2022/12/28 15:11:43;;;;;;;11.90;8.73;;;10.30;53.20;;;;;;6225790;28;20460;-66
2022/12/28 15:14:47;;;;;;;18.30;10.00;;;10.10;54.10;;;;;;6225944;28;20482;-66
2022/12/28 15:17:50;;;;;;;10.67;8.73;;;9.90;56.00;;;;;;6225597;28;21005;-66
2022/12/28 15:20:55;;;;;;;13.90;9.17;;;9.70;57.10;;;;;;6225772;28;20484;-65
2022/12/28 15:23:59;;;;;;;17.90;10.50;;;9.50;58.00;;;;;;6225591;28;20479;-66
2022/12/28 15:27:04;;;;;;;15.30;9.07;;;9.40;59.30;;;;;;6225758;28;20472;-65
2022/12/28 15:30:09;;;;;;;11.30;7.43;;;9.20;61.10;;;;;;6225357;28;20523;-66
2022/12/28 15:33:18;;;;;;;12.70;8.80;;;9.10;62.80;;;;;;6225510;28;20480;-65
2022/12/28 15:36:23;;;;;;;12.47;8.77;;;8.90;63.80;;;;;;6225239;28;21029;-66
2022/12/28 15:39:27;;;;;;;10.97;9.87;;;8.80;65.60;;;;;;6225256;28;20573;-65
2022/12/28 15:42:30;;;;;;;11.30;7.30;;;8.70;67.10;;;;;;6225539;28;20541;-65
2022/12/28 15:45:42;;;;;;;16.17;9.40;;;8.60;68.80;;;;;;6225217;28;20550;-66
2022/12/28 15:48:45;;;;;;;10.93;9.73;;;8.50;70.40;;;;;;6216490;28;20483;-66
2022/12/28 15:51:51;;;;;;;12.50;10.70;;;8.30;72.00;;;;;;6225026;28;20464;-66
2022/12/28 15:54:54;;;;;;;12.47;10.30;;;8.30;73.90;;;;;;6224529;28;20468;-67
2022/12/28 15:57:57;;;;;;;12.73;9.57;;;8.10;75.20;;;;;;6225055;28;20502;-65
2022/12/28 16:01:00;;;;;;;18.70;9.00;;;8.00;76.40;;;;;;6225463;28;20979;-64
2022/12/28 16:04:04;;;;;;;9.20;8.33;;;7.90;77.40;;;;;;6225392;28;20488;-64
2022/12/28 16:07:09;;;;;;;12.40;9.73;;;7.80;79.50;;;;;;6224831;28;20483;-64
2022/12/28 16:10:12;;;;;;;10.50;8.00;;;7.70;79.70;;;;;;6224703;28;20486;-63
2022/12/28 16:13:15;;;;;;;14.07;10.90;;;7.60;80.80;;;;;;6222719;28;20464;-65
2022/12/28 16:16:20;;;;;;;12.70;11.37;;;7.50;81.80;;;;;;6240651;28;20469;-66
2022/12/28 16:19:26;;;;;;;11.73;10.30;;;7.40;82.70;;;;;;6288821;28;20497;-64
2022/12/28 16:22:31;;;;;;;14.07;12.67;;;7.40;83.40;;;;;;6257296;28;20581;-66
2022/12/28 16:25:34;;;;;;;12.47;11.00;;;7.30;84.80;;;;;;6241446;28;20448;-63
2022/12/28 16:28:38;;;;;;;11.80;9.53;;;7.20;85.70;;;;;;6253720;28;20458;-62
2022/12/28 16:31:42;;;;;;;13.40;9.30;;;7.10;86.50;;;;;;6262223;28;20430;-63
2022/12/28 16:34:45;;;;;;;16.03;9.93;;;7.10;87.30;;;;;;6254272;28;20455;-64
2022/12/28 16:37:52;;;;;;;15.50;9.73;;;7.00;87.90;;;;;;6253427;28;20489;-63
2022/12/28 16:40:56;;;;;;;11.60;10.10;;;6.90;88.80;;;;;;6252574;28;20475;-64
2022/12/28 16:44:03;;;;;;;17.67;8.73;;;6.80;89.70;;;;;;6253804;28;20471;-64
2022/12/28 16:47:10;;;;;;;10.93;8.53;;;6.70;90.30;;;;;;6253200;28;20951;-61